createdAt,value
2019-05-26T00:00:44.706Z,75.04
2019-05-26T00:03:15.781Z,75.10
2019-05-26T00:05:48.450Z,75.23
2019-05-26T00:08:23.475Z,75.14
2019-05-26T00:10:56.141Z,75.36
2019-05-26T00:13:27.321Z,75.21
2019-05-26T00:15:59.612Z,75.21
2019-05-26T00:18:33.361Z,75.09
2019-05-26T00:21:06.217Z,75.09
2019-05-26T00:23:37.490Z,74.60
2019-05-26T00:26:10.152Z,74.77
2019-05-26T00:28:43.780Z,74.82
2019-05-26T00:31:14.018Z,74.86
2019-05-26T00:33:46.604Z,74.68
2019-05-26T00:36:17.677Z,75.58
2019-05-26T00:38:48.923Z,75.33
2019-05-26T00:41:21.880Z,76.05
2019-05-26T00:43:53.252Z,76.04
2019-05-26T00:46:25.799Z,75.90
2019-05-26T00:48:57.250Z,75.91
2019-05-26T00:51:28.345Z,76.06
2019-05-26T00:53:59.594Z,76.25
2019-05-26T00:56:32.617Z,76.25
2019-05-26T00:59:04.072Z,76.25
2019-05-26T01:01:39.787Z,76.90
2019-05-26T01:04:10.938Z,76.97
2019-05-26T01:06:42.252Z,76.97
2019-05-26T01:09:18.075Z,77.29
2019-05-26T01:11:52.542Z,77.37
2019-05-26T01:14:27.026Z,77.20
2019-05-26T01:16:58.156Z,77.26
2019-05-26T01:19:29.264Z,77.48
2019-05-26T01:22:01.872Z,77.36
2019-05-26T01:24:32.964Z,77.17
2019-05-26T01:27:04.192Z,77.46
2019-05-26T01:29:37.090Z,77.53
2019-05-26T01:32:08.145Z,77.61
2019-05-26T01:34:39.329Z,77.47
2019-05-26T01:37:11.882Z,77.70
2019-05-26T01:39:42.960Z,78.19
2019-05-26T01:42:18.248Z,78.39
2019-05-26T01:45:03.320Z,78.23
2019-05-26T01:47:33.137Z,78.16
2019-05-26T01:50:06.795Z,77.96
2019-05-26T01:52:37.849Z,78.18
2019-05-26T01:55:11.580Z,78.06
2019-05-26T01:57:44.178Z,77.84
2019-05-26T02:00:16.563Z,77.98
2019-05-26T02:02:47.574Z,77.89
2019-05-26T02:05:18.834Z,77.71
2019-05-26T02:07:51.479Z,77.56
2019-05-26T02:10:25.158Z,77.52
2019-05-26T02:12:56.285Z,77.69
2019-05-26T02:15:30.754Z,77.28
2019-05-26T02:18:01.869Z,77.01
2019-05-26T02:20:32.940Z,76.86
2019-05-26T02:23:05.671Z,76.74
2019-05-26T02:25:36.815Z,76.73
2019-05-26T02:28:08.634Z,76.52
2019-05-26T02:30:39.765Z,76.69
2019-05-26T02:33:12.436Z,76.73
2019-05-26T02:35:43.613Z,76.57
2019-05-26T02:38:14.705Z,76.79
2019-05-26T02:40:49.015Z,76.64
2019-05-26T02:43:20.164Z,76.29
2019-05-26T02:45:51.296Z,76.52
2019-05-26T02:48:22.478Z,76.30
2019-05-26T02:50:55.243Z,75.97
2019-05-26T02:53:27.878Z,75.74
2019-05-26T02:55:59.206Z,75.49
2019-05-26T02:58:31.726Z,75.27
2019-05-26T03:01:02.958Z,75.22
2019-05-26T03:03:34.082Z,75.02
2019-05-26T03:06:05.762Z,74.89
2019-05-26T03:08:37.749Z,74.68
2019-05-26T03:11:10.874Z,74.54
2019-05-26T03:13:46.492Z,74.38
2019-05-26T03:16:28.553Z,74.33
2019-05-26T03:19:01.871Z,74.45
2019-05-26T03:21:35.824Z,74.29
2019-05-26T03:24:23.289Z,74.20
2019-05-26T03:26:58.437Z,74.17
2019-05-26T03:29:39.502Z,73.94
2019-05-26T03:32:12.878Z,73.72
2019-05-26T03:34:54.182Z,73.86
2019-05-26T03:37:29.659Z,73.63
2019-05-26T03:40:10.314Z,72.84
2019-05-26T03:42:45.116Z,71.86
2019-05-26T03:45:33.948Z,71.29
2019-05-26T03:47:59.055Z,70.73
2019-05-26T03:50:34.802Z,69.56
2019-05-26T03:53:25.046Z,68.77
2019-05-26T03:59:38.493Z,68.64
2019-05-26T04:02:15.409Z,68.78
2019-05-26T04:04:45.344Z,68.62
2019-05-26T04:07:19.091Z,67.68
2019-05-26T04:10:03.859Z,66.50
2019-05-26T04:22:35.993Z,59.68
2019-05-26T04:27:09.231Z,56.71
2019-05-26T04:29:40.235Z,56.10
2019-05-26T04:32:12.142Z,55.66
2019-05-26T04:34:46.145Z,55.27
2019-05-26T04:37:17.198Z,55.19
2019-05-26T04:39:49.733Z,54.97
2019-05-26T04:42:20.870Z,54.99
2019-05-26T04:44:57.988Z,54.66
2019-05-26T04:47:31.342Z,54.40
2019-05-26T04:50:02.463Z,54.57
2019-05-26T04:52:33.551Z,54.84
2019-05-26T04:55:07.113Z,54.82
2019-05-26T04:57:37.319Z,54.42
2019-05-26T05:00:09.526Z,54.07
2019-05-26T05:02:41.394Z,54.03
2019-05-26T05:05:12.742Z,53.98
2019-05-26T05:07:43.860Z,54.15
2019-05-26T05:10:15.526Z,53.90
2019-05-26T05:12:46.613Z,54.25
2019-05-26T05:15:17.732Z,54.52
2019-05-26T05:17:48.903Z,54.48
2019-05-26T05:20:23.064Z,54.64
2019-05-26T05:22:54.108Z,54.71
2019-05-26T05:25:25.193Z,54.77
2019-05-26T05:28:12.478Z,54.98
2019-05-26T05:30:54.392Z,55.32
2019-05-26T05:33:24.820Z,55.83
2019-05-26T05:35:58.510Z,55.91
2019-05-26T05:38:30.195Z,56.21
2019-05-26T05:41:01.312Z,56.35
2019-05-26T05:43:32.784Z,56.55
2019-05-26T05:46:05.422Z,56.80
2019-05-26T05:49:08.748Z,57.03
2019-05-26T05:51:49.814Z,57.29
2019-05-26T05:55:22.244Z,57.91
2019-05-26T05:57:12.560Z,58.06
2019-05-26T06:02:36.824Z,58.25
2019-05-26T06:05:16.518Z,58.45
2019-05-26T06:07:58.661Z,58.67
2019-05-26T06:10:42.904Z,58.82
2019-05-26T06:13:18.853Z,58.95
2019-05-26T06:16:02.834Z,58.92
2019-05-26T06:18:44.681Z,59.10
2019-05-26T06:21:14.816Z,59.13
2019-05-26T06:23:50.690Z,59.42
2019-05-26T06:26:26.415Z,59.55
2019-05-26T06:29:03.558Z,59.79
2019-05-26T06:31:47.701Z,60.04
2019-05-26T06:39:09.116Z,60.64
2019-05-26T06:40:43.743Z,60.73
2019-05-26T06:43:19.654Z,60.93
2019-05-26T06:45:50.897Z,61.15
2019-05-26T06:48:32.181Z,61.02
2019-05-26T06:51:07.504Z,61.05
2019-05-26T06:53:39.561Z,60.98
2019-05-26T06:56:10.674Z,61.06
2019-05-26T06:58:43.332Z,60.91
2019-05-26T07:01:14.408Z,61.21
2019-05-26T07:03:45.545Z,61.08
2019-05-26T07:06:16.612Z,60.95
2019-05-26T07:08:51.492Z,61.41
2019-05-26T07:11:24.126Z,61.27
2019-05-26T07:13:56.946Z,61.30
2019-05-26T07:16:38.033Z,61.37
2019-05-26T07:19:03.554Z,61.51
2019-05-26T07:21:39.289Z,61.38
2019-05-26T07:24:12.076Z,61.67
2019-05-26T07:26:43.428Z,61.83
2019-05-26T07:29:14.483Z,61.72
2019-05-26T07:31:47.252Z,61.96
2019-05-26T07:34:18.412Z,61.94
2019-05-26T07:36:49.506Z,61.80
2019-05-26T07:39:24.884Z,61.70
2019-05-26T07:42:09.430Z,61.60
2019-05-26T07:44:30.373Z,61.35
2019-05-26T07:47:01.454Z,61.24
2019-05-26T07:49:32.630Z,61.26
2019-05-26T07:52:03.718Z,61.23
2019-05-26T07:54:41.809Z,60.89
2019-05-26T07:57:12.962Z,60.69
2019-05-26T07:59:44.150Z,60.42
2019-05-26T08:02:16.313Z,60.57
2019-05-26T08:04:47.937Z,60.31
2019-05-26T08:07:22.830Z,60.32
2019-05-26T08:09:52.745Z,60.48
2019-05-26T08:12:28.237Z,59.82
2019-05-26T08:14:58.210Z,60.02
2019-05-26T08:17:30.889Z,59.96
2019-05-26T08:20:04.530Z,59.99
2019-05-26T08:22:37.152Z,59.98
2019-05-26T08:25:11.254Z,59.84
2019-05-26T08:27:43.936Z,59.75
2019-05-26T08:30:15.029Z,59.51
2019-05-26T08:32:46.070Z,59.22
2019-05-26T08:35:17.256Z,59.47
2019-05-26T08:37:48.483Z,59.40
2019-05-26T08:40:20.548Z,59.50
2019-05-26T08:42:52.798Z,59.55
2019-05-26T08:45:26.570Z,59.56
2019-05-26T08:47:56.801Z,59.71
2019-05-26T08:50:29.572Z,59.89
2019-05-26T08:53:00.678Z,59.82
2019-05-26T08:55:31.935Z,59.84
2019-05-26T08:58:03.089Z,60.39
2019-05-26T09:00:37.349Z,60.40
2019-05-26T09:03:09.348Z,60.57
2019-05-26T09:05:43.463Z,60.69
2019-05-26T09:08:19.855Z,60.74
2019-05-26T09:10:51.794Z,60.69
2019-05-26T09:13:22.978Z,60.43
2019-05-26T09:15:57.268Z,60.09
2019-05-26T09:18:30.964Z,59.72
2019-05-26T09:21:01.160Z,59.27
2019-05-26T09:23:35.406Z,58.60
2019-05-26T09:26:08.970Z,58.45
2019-05-26T09:28:41.285Z,58.26
2019-05-26T09:31:12.507Z,58.07
2019-05-26T09:33:43.557Z,57.77
2019-05-26T09:36:15.520Z,57.85
2019-05-26T09:38:48.215Z,57.45
2019-05-26T09:41:20.232Z,57.52
2019-05-26T09:43:54.032Z,57.19
2019-05-26T09:46:25.252Z,56.82
2019-05-26T09:49:00.794Z,56.39
2019-05-26T09:51:30.544Z,56.36
2019-05-26T09:54:05.654Z,56.09
2019-05-26T09:56:37.623Z,55.66
2019-05-26T09:59:08.729Z,55.53
2019-05-26T10:01:42.002Z,54.99
2019-05-26T10:04:13.028Z,54.69
2019-05-26T10:06:45.764Z,54.47
2019-05-26T10:09:19.193Z,54.61
2019-05-26T10:11:50.338Z,54.43
2019-05-26T10:14:21.415Z,54.04
2019-05-26T10:16:55.088Z,53.98
2019-05-26T10:19:33.314Z,53.47
2019-05-26T10:22:01.748Z,53.33
2019-05-26T10:24:39.353Z,52.90
2019-05-26T10:27:11.472Z,51.15
2019-05-26T10:29:44.124Z,50.80
2019-05-26T10:32:15.234Z,50.80
2019-05-26T10:34:48.770Z,51.06
2019-05-26T10:37:19.840Z,50.66
2019-05-26T10:39:53.667Z,49.90
2019-05-26T10:42:28.144Z,49.45
2019-05-26T10:45:00.848Z,48.84
2019-05-26T10:47:33.987Z,48.57
2019-05-26T10:50:08.538Z,48.29
2019-05-26T10:52:39.593Z,48.61
2019-05-26T10:55:11.565Z,49.10
2019-05-26T10:57:46.890Z,48.57
2019-05-26T11:00:19.826Z,48.28
2019-05-26T11:02:53.720Z,48.07
2019-05-26T11:05:28.844Z,47.53
2019-05-26T11:08:06.597Z,47.53
2019-05-26T11:10:39.170Z,47.34
2019-05-26T11:13:14.492Z,47.47
2019-05-26T11:15:50.945Z,47.83
2019-05-26T11:18:22.095Z,47.71
2019-05-26T11:20:57.385Z,47.64
2019-05-26T11:23:28.514Z,47.72
2019-05-26T11:25:59.630Z,47.41
2019-05-26T11:28:30.869Z,47.39
2019-05-26T11:31:02.962Z,47.51
2019-05-26T11:33:35.712Z,48.15
2019-05-26T11:36:08.201Z,48.29
2019-05-26T11:38:40.824Z,48.04
2019-05-26T11:41:14.990Z,47.84
2019-05-26T11:43:46.142Z,47.89
2019-05-26T11:46:17.545Z,47.92
2019-05-26T11:48:48.920Z,47.46
2019-05-26T11:51:20.086Z,47.39
2019-05-26T11:53:55.369Z,46.66
2019-05-26T11:56:27.965Z,46.74
2019-05-26T11:59:01.917Z,46.54
2019-05-26T12:01:34.658Z,46.39
2019-05-26T12:04:07.397Z,46.76
2019-05-26T12:06:42.747Z,46.13
2019-05-26T12:09:19.967Z,46.50
2019-05-26T12:11:52.678Z,46.40
2019-05-26T12:14:34.786Z,46.46
2019-05-26T12:17:04.743Z,46.16
2019-05-26T12:19:43.033Z,45.81
2019-05-26T12:22:15.901Z,46.25
2019-05-26T12:24:50.774Z,45.53
2019-05-26T12:27:30.688Z,46.08
2019-05-26T12:30:07.767Z,45.59
2019-05-26T12:32:47.297Z,46.07
2019-05-26T12:35:25.623Z,45.94
2019-05-26T12:37:56.893Z,46.25
2019-05-26T12:40:34.931Z,46.16
2019-05-26T12:43:09.088Z,46.62
2019-05-26T12:45:54.285Z,46.23
2019-05-26T12:48:43.497Z,46.20
2019-05-26T12:51:12.205Z,46.56
2019-05-26T12:53:43.551Z,45.96
2019-05-26T12:59:11.951Z,45.17
2019-05-26T13:01:49.154Z,44.96
2019-05-26T13:04:26.435Z,45.28
2019-05-26T13:07:15.597Z,45.61
2019-05-26T13:09:53.791Z,45.86
2019-05-26T13:12:20.169Z,46.33
2019-05-26T13:15:05.831Z,46.49
2019-05-26T13:23:07.821Z,47.59
2019-05-26T13:25:58.377Z,47.73
2019-05-26T13:28:34.005Z,47.80
2019-05-26T13:31:19.564Z,47.93
2019-05-26T13:33:52.223Z,48.34
2019-05-26T13:36:30.074Z,48.78
2019-05-26T13:39:05.534Z,48.87
2019-05-26T13:41:41.105Z,49.47
2019-05-26T13:44:13.762Z,49.64
2019-05-26T13:46:44.927Z,49.93
2019-05-26T13:49:16.048Z,49.96
2019-05-26T13:51:50.372Z,49.94
2019-05-26T13:54:23.835Z,50.34
2019-05-26T13:56:56.541Z,50.63
2019-05-26T13:59:27.719Z,50.48
2019-05-26T14:04:59.083Z,50.67
2019-05-26T14:07:31.016Z,50.81
2019-05-26T14:10:03.414Z,50.97
2019-05-26T14:12:34.529Z,51.02
2019-05-26T14:15:09.580Z,51.08
2019-05-26T14:17:40.768Z,51.37
2019-05-26T14:20:13.506Z,51.89
2019-05-26T14:22:44.717Z,51.91
2019-05-26T14:25:15.813Z,52.23
2019-05-26T14:27:47.200Z,52.50
2019-05-26T14:30:19.989Z,53.03
2019-05-26T14:32:52.855Z,53.67
2019-05-26T14:35:25.591Z,54.08
2019-05-26T14:37:57.531Z,54.29
2019-05-26T14:40:29.200Z,54.83
2019-05-26T14:43:01.716Z,55.35
2019-05-26T14:45:32.977Z,55.22
2019-05-26T14:48:04.561Z,55.40
2019-05-26T14:50:35.635Z,55.69
2019-05-26T14:53:06.775Z,55.80
2019-05-26T14:55:40.876Z,55.79
2019-05-26T14:58:16.336Z,56.00
2019-05-26T15:00:44.873Z,55.71
2019-05-26T15:03:16.086Z,55.85
2019-05-26T15:05:47.272Z,55.96
2019-05-26T15:08:20.870Z,55.96
2019-05-26T15:10:51.976Z,56.24
2019-05-26T15:13:23.170Z,56.90
2019-05-26T15:16:08.696Z,57.86
2019-05-26T15:18:27.299Z,58.41
2019-05-26T15:21:00.514Z,58.65
2019-05-26T15:23:31.665Z,59.38
2019-05-26T15:26:05.435Z,60.00
2019-05-26T15:28:38.134Z,60.15
2019-05-26T15:31:11.572Z,61.17
2019-05-26T15:33:44.256Z,62.25
2019-05-26T15:36:19.623Z,62.21
2019-05-26T15:38:51.353Z,63.18
2019-05-26T15:41:24.942Z,63.56
2019-05-26T15:43:57.709Z,63.79
2019-05-26T15:46:28.795Z,63.70
2019-05-26T15:49:01.411Z,63.85
2019-05-26T15:51:32.465Z,63.73
2019-05-26T15:54:04.361Z,65.21
2019-05-26T15:56:36.952Z,65.99
2019-05-26T15:59:08.003Z,67.79
2019-05-26T16:01:42.381Z,68.22
2019-05-26T16:04:13.507Z,69.07
2019-05-26T16:06:44.611Z,69.96
2019-05-26T16:09:18.763Z,71.08
2019-05-26T16:11:49.859Z,72.44
2019-05-26T16:14:20.995Z,72.57
2019-05-26T16:16:52.065Z,73.40
2019-05-26T16:19:23.252Z,74.62
2019-05-26T16:21:54.367Z,74.88
2019-05-26T16:24:27.154Z,74.71
2019-05-26T16:27:00.534Z,74.83
2019-05-26T16:29:31.013Z,75.76
2019-05-26T16:32:02.116Z,74.59
2019-05-26T16:34:33.290Z,75.41
2019-05-26T16:37:04.358Z,74.78
2019-05-26T16:39:37.875Z,75.11
2019-05-26T16:42:08.971Z,75.56
2019-05-26T16:44:40.116Z,75.99
2019-05-26T16:47:12.793Z,75.77
2019-05-26T16:49:45.204Z,75.74
2019-05-26T16:52:17.295Z,76.00
2019-05-26T16:54:48.477Z,76.90
2019-05-26T16:57:19.693Z,76.35
2019-05-26T16:59:52.190Z,77.62
2019-05-26T17:02:25.008Z,77.61
2019-05-26T17:04:56.146Z,77.69
2019-05-26T17:07:28.681Z,77.23
2019-05-26T17:10:00.845Z,78.37
2019-05-26T17:12:31.915Z,78.20
2019-05-26T17:15:03.109Z,78.57
2019-05-26T17:17:36.202Z,78.52
2019-05-26T17:20:10.372Z,78.72
2019-05-26T17:22:43.082Z,78.27
2019-05-26T17:25:15.239Z,79.08
2019-05-26T17:27:46.382Z,78.41
2019-05-26T17:30:21.984Z,78.43
2019-05-26T17:32:54.628Z,79.25
2019-05-26T17:35:25.805Z,78.59
2019-05-26T17:38:00.865Z,78.97
2019-05-26T17:40:35.874Z,78.79
2019-05-26T17:43:09.993Z,79.48
2019-05-26T17:45:41.137Z,79.47
2019-05-26T17:48:12.209Z,79.60
2019-05-26T17:50:43.345Z,80.36
2019-05-26T17:53:14.404Z,80.11
2019-05-26T17:55:48.060Z,79.89
2019-05-26T17:58:22.126Z,80.12
2019-05-26T18:00:55.611Z,79.84
2019-05-26T18:03:26.732Z,80.23
2019-05-26T18:05:57.900Z,79.91
2019-05-26T18:08:29.064Z,80.29
2019-05-26T18:11:01.841Z,80.20
2019-05-26T18:13:35.951Z,80.06
2019-05-26T18:16:07.199Z,80.35
2019-05-26T18:18:38.466Z,80.50
2019-05-26T18:21:11.167Z,80.05
2019-05-26T18:23:42.240Z,80.03
2019-05-26T18:26:14.184Z,79.80
2019-05-26T18:28:45.353Z,79.78
2019-05-26T18:31:28.164Z,79.40
2019-05-26T18:33:50.047Z,79.57
2019-05-26T18:36:21.233Z,79.33
2019-05-26T18:38:52.272Z,78.99
2019-05-26T18:41:24.224Z,79.01
2019-05-26T18:43:55.304Z,79.17
2019-05-26T18:46:26.506Z,79.29
2019-05-26T18:48:59.289Z,79.13
2019-05-26T18:51:30.392Z,78.80
2019-05-26T18:54:03.089Z,78.91
2019-05-26T18:56:34.240Z,78.43
2019-05-26T18:59:05.534Z,78.24
2019-05-26T19:01:36.625Z,78.27
2019-05-26T19:04:07.723Z,78.03
2019-05-26T19:06:38.868Z,78.48
2019-05-26T19:09:10.765Z,78.20
2019-05-26T19:11:41.887Z,78.07
2019-05-26T19:14:13.034Z,78.23
2019-05-26T19:16:45.680Z,78.08
2019-05-26T19:19:18.366Z,78.07
2019-05-26T19:21:53.765Z,78.01
2019-05-26T19:24:26.306Z,77.94
2019-05-26T19:26:57.492Z,78.27
2019-05-26T19:29:28.584Z,78.24
2019-05-26T19:31:59.894Z,78.48
2019-05-26T19:34:34.011Z,78.13
2019-05-26T19:37:08.071Z,79.04
2019-05-26T19:39:40.649Z,78.97
2019-05-26T19:42:12.598Z,78.84
2019-05-26T19:44:43.788Z,78.96
2019-05-26T19:47:15.051Z,78.74
2019-05-26T19:49:46.185Z,78.56
2019-05-26T19:52:18.278Z,78.76
2019-05-26T19:54:49.628Z,78.66
2019-05-26T19:57:21.714Z,78.37
2019-05-26T19:59:53.085Z,78.10
2019-05-26T20:02:30.399Z,77.97
2019-05-26T20:05:02.910Z,77.61
2019-05-26T20:07:34.168Z,77.31
2019-05-26T20:10:07.555Z,77.33
2019-05-26T20:12:38.664Z,77.01
2019-05-26T20:15:10.798Z,77.44
2019-05-26T20:17:41.966Z,77.23
2019-05-26T20:20:16.664Z,76.99
2019-05-26T20:22:47.806Z,76.73
2019-05-26T20:25:18.881Z,76.97
2019-05-26T20:27:53.780Z,76.91
2019-05-26T20:30:26.328Z,76.84
2019-05-26T20:32:58.261Z,76.50
2019-05-26T20:35:32.865Z,76.64
2019-05-26T20:38:03.980Z,76.31
2019-05-26T20:40:35.036Z,76.42
2019-05-26T20:43:09.906Z,76.42
2019-05-26T20:45:42.390Z,76.32
2019-05-26T20:48:13.550Z,76.01
2019-05-26T20:50:44.597Z,76.17
2019-05-26T20:53:15.740Z,76.01
2019-05-26T20:55:46.841Z,76.06
2019-05-26T20:58:20.475Z,76.29
2019-05-26T21:00:53.415Z,76.07
2019-05-26T21:03:24.559Z,76.11
2019-05-26T21:05:55.768Z,76.22
2019-05-26T21:08:29.962Z,76.31
2019-05-26T21:11:01.053Z,76.46
2019-05-26T21:13:34.514Z,76.69
2019-05-26T21:16:05.691Z,76.92
2019-05-26T21:18:36.811Z,76.99
2019-05-26T21:21:07.869Z,77.64
2019-05-26T21:23:38.990Z,77.58
2019-05-26T21:26:10.063Z,77.49
2019-05-26T21:28:43.108Z,77.87
2019-05-26T21:31:14.224Z,78.43
2019-05-26T21:33:46.897Z,78.40
2019-05-26T21:36:18.513Z,78.57
2019-05-26T21:38:54.448Z,78.73
2019-05-26T21:41:25.520Z,78.56
2019-05-26T21:43:57.800Z,78.51
2019-05-26T21:46:28.879Z,79.02
2019-05-26T21:49:01.493Z,79.01
2019-05-26T21:51:32.580Z,79.13
2019-05-26T21:54:03.750Z,79.29
2019-05-26T21:56:36.338Z,78.84
2019-05-26T21:59:08.852Z,78.84
2019-05-26T22:01:43.464Z,78.80
2019-05-26T22:04:14.542Z,78.63
2019-05-26T22:06:47.884Z,78.70
2019-05-26T22:09:20.578Z,78.83
2019-05-26T22:11:51.626Z,78.62
2019-05-26T22:14:23.574Z,78.56
2019-05-26T22:16:56.345Z,78.57
2019-05-26T22:19:27.431Z,78.55
2019-05-26T22:21:58.481Z,78.49
2019-05-26T22:24:29.614Z,78.50
2019-05-26T22:27:00.729Z,78.51
2019-05-26T22:29:31.851Z,78.52
2019-05-26T22:32:04.619Z,78.56
2019-05-26T22:34:37.216Z,78.59
2019-05-26T22:37:12.814Z,78.58
2019-05-26T22:39:57.037Z,78.55
2019-05-26T22:42:28.147Z,78.55
2019-05-26T22:45:02.486Z,78.59
2019-05-26T22:47:33.573Z,78.66
2019-05-26T22:50:09.134Z,78.73
2019-05-26T22:52:41.567Z,78.75
2019-05-26T22:55:14.515Z,78.76
2019-05-26T22:57:46.758Z,78.85
2019-05-26T23:09:22.586Z,79.04
2019-05-26T23:12:24.874Z,79.00
2019-05-26T23:21:11.414Z,79.34
2019-05-26T23:36:29.369Z,80.84
2019-05-26T23:41:55.398Z,81.30
2019-05-26T23:45:33.692Z,80.69
